createdAt,value
2022-10-06T00:00:19.118Z,97132.38
2022-10-06T00:05:21.662Z,96992.56
2022-10-06T00:10:25.553Z,96909.41
2022-10-06T00:15:30.183Z,96845.94
2022-10-06T00:20:32.844Z,96696.03
2022-10-06T00:25:36.953Z,96594.44
2022-10-06T00:30:39.502Z,96421.28
2022-10-06T00:35:42.048Z,96327.59
2022-10-06T00:40:47.510Z,96198.56
2022-10-06T00:45:50.339Z,96078.47
2022-10-06T00:50:54.077Z,95993.97
2022-10-06T00:55:58.041Z,95910.69
2022-10-06T01:01:00.738Z,95876.63
2022-10-06T01:06:03.625Z,95840.41
2022-10-06T01:11:10.222Z,95815.75
2022-10-06T01:16:18.552Z,95744.31
2022-10-06T01:21:26.115Z,95733.34
2022-10-06T01:26:31.671Z,95705.97
2022-10-06T01:31:34.702Z,95704.56
2022-10-06T01:36:37.409Z,95647.16
2022-10-06T01:41:41.687Z,95640.34
2022-10-06T01:46:44.396Z,95626.34
2022-10-06T01:51:47.161Z,95626.22
2022-10-06T01:56:51.735Z,95648.09
2022-10-06T02:01:55.955Z,95632.31
2022-10-06T02:06:58.918Z,95660.25
2022-10-06T02:12:04.327Z,95630.00
2022-10-06T02:17:07.495Z,95657.03
2022-10-06T02:22:10.054Z,95674.06
2022-10-06T02:27:14.146Z,95682.25
2022-10-06T02:32:17.285Z,95710.25
2022-10-06T02:37:21.668Z,95749.31
2022-10-06T02:42:25.677Z,95760.09
2022-10-06T02:47:29.290Z,95773.19
2022-10-06T02:52:34.609Z,95769.78
2022-10-06T02:57:39.095Z,95808.09
2022-10-06T03:02:42.323Z,95825.84
2022-10-06T03:07:45.929Z,95807.88
2022-10-06T03:12:49.926Z,95865.03
2022-10-06T03:17:52.659Z,95893.41
2022-10-06T03:22:55.617Z,95883.38
2022-10-06T03:27:59.699Z,95886.03
2022-10-06T03:33:02.357Z,95892.94
2022-10-06T03:38:05.141Z,95935.63
2022-10-06T03:43:11.456Z,95909.75
2022-10-06T03:48:14.612Z,95955.09
2022-10-06T03:53:17.206Z,95971.75
2022-10-06T03:58:21.301Z,95989.50
2022-10-06T04:03:23.989Z,96021.69
2022-10-06T04:08:27.366Z,96028.75
2022-10-06T04:13:31.897Z,96041.25
2022-10-06T04:18:34.834Z,96070.34
2022-10-06T04:23:37.547Z,96075.47
2022-10-06T04:28:44.059Z,96076.34
2022-10-06T04:33:47.108Z,96087.81
2022-10-06T04:38:56.198Z,96105.47
2022-10-06T04:44:02.042Z,96135.75
2022-10-06T04:49:05.150Z,96142.88
2022-10-06T04:54:09.275Z,96167.75
2022-10-06T04:59:13.243Z,96166.75
2022-10-06T05:04:18.659Z,96203.16
2022-10-06T05:09:21.615Z,96191.50
2022-10-06T05:14:30.015Z,96235.91
2022-10-06T05:19:32.657Z,96247.44
2022-10-06T05:24:35.398Z,96266.88
2022-10-06T05:29:40.499Z,96276.56
2022-10-06T05:34:44.219Z,96281.84
2022-10-06T05:39:47.457Z,96318.16
2022-10-06T05:44:51.479Z,96301.28
2022-10-06T05:49:55.066Z,96334.88
2022-10-06T05:54:57.777Z,96337.53
2022-10-06T06:00:02.346Z,96332.09
2022-10-06T06:05:15.686Z,96360.34
2022-10-06T06:10:18.447Z,96380.00
2022-10-06T06:15:39.847Z,96390.25
2022-10-06T06:20:42.855Z,96362.41
2022-10-06T06:25:45.836Z,96399.44
2022-10-06T06:30:49.844Z,96391.25
2022-10-06T06:35:52.592Z,96400.94
2022-10-06T06:40:56.460Z,96410.53
2022-10-06T06:46:05.117Z,96422.81
2022-10-06T06:51:33.132Z,96438.50
2022-10-06T06:56:36.405Z,96444.47
2022-10-06T07:01:45.703Z,96325.53
2022-10-06T07:06:56.899Z,96429.56
2022-10-06T07:12:00.478Z,96395.22
2022-10-06T07:17:22.173Z,96458.22
2022-10-06T07:22:44.635Z,96445.38
2022-10-06T07:27:51.843Z,96494.19
2022-10-06T07:33:00.003Z,96498.38
2022-10-06T07:38:07.864Z,96522.22
2022-10-06T07:43:17.392Z,96503.88
2022-10-06T07:48:24.253Z,96542.81
2022-10-06T07:53:35.993Z,96529.13
2022-10-06T07:58:45.140Z,96518.06
2022-10-06T08:03:50.597Z,96521.38
2022-10-06T08:08:53.656Z,96528.94
2022-10-06T08:13:56.292Z,96587.06
2022-10-06T08:19:00.258Z,96607.69
2022-10-06T08:24:03.092Z,96638.09
2022-10-06T08:29:05.814Z,96722.84
2022-10-06T08:34:11.969Z,96769.13
2022-10-06T08:39:14.625Z,96842.94
2022-10-06T08:44:20.383Z,96906.97
2022-10-06T08:49:27.118Z,97002.16
2022-10-06T08:54:36.269Z,97110.47
2022-10-06T08:59:38.863Z,97200.19
2022-10-06T09:04:42.959Z,97322.56
2022-10-06T09:09:58.457Z,97483.84
2022-10-06T09:15:16.553Z,97578.88
2022-10-06T09:20:24.972Z,97690.72
2022-10-06T09:25:29.047Z,97810.59
2022-10-06T09:30:31.719Z,97899.44
2022-10-06T09:35:36.542Z,98015.91
2022-10-06T09:40:41.966Z,98150.19
2022-10-06T09:45:44.528Z,98340.44
2022-10-06T09:51:07.921Z,98498.59
2022-10-06T09:56:15.435Z,98592.09
2022-10-06T10:01:24.210Z,98813.28
2022-10-06T10:06:30.011Z,98891.00
2022-10-06T10:11:50.464Z,99087.53
2022-10-06T10:16:53.502Z,99283.25
2022-10-06T10:21:57.558Z,99521.31
2022-10-06T10:27:04.135Z,99646.28
2022-10-06T10:32:12.722Z,99814.56
2022-10-06T10:37:19.938Z,99950.16
2022-10-06T10:42:28.558Z,100116.50
2022-10-06T10:47:34.165Z,100216.94
2022-10-06T10:52:42.250Z,100348.59
2022-10-06T10:57:45.902Z,100454.25
2022-10-06T11:02:48.587Z,100490.25
2022-10-06T11:07:56.924Z,100573.09
2022-10-06T11:13:12.033Z,100666.06
2022-10-06T11:18:24.235Z,100769.78
2022-10-06T11:23:38.918Z,100808.97
2022-10-06T11:28:45.662Z,100853.81
2022-10-06T11:33:50.400Z,100902.75
2022-10-06T11:38:58.767Z,100979.50
2022-10-06T11:44:04.745Z,101030.03
2022-10-06T11:49:56.823Z,101102.75
2022-10-06T11:55:08.997Z,101157.22
2022-10-06T12:00:44.856Z,101203.44
2022-10-06T12:05:56.270Z,101270.13
2022-10-06T12:11:00.614Z,101304.13
2022-10-06T12:21:45.464Z,101375.91
2022-10-06T12:26:55.199Z,101413.13
2022-10-06T12:32:03.450Z,101434.53
2022-10-06T12:37:51.515Z,101484.28
2022-10-06T12:43:19.071Z,101530.25
2022-10-06T12:48:25.466Z,101551.81
2022-10-06T12:53:32.822Z,101573.78
2022-10-06T12:58:36.881Z,101591.91
2022-10-06T13:03:40.220Z,101598.47
2022-10-06T13:08:42.834Z,101607.66
2022-10-06T13:13:51.456Z,101608.16
2022-10-06T13:18:55.821Z,101631.03
2022-10-06T13:23:58.806Z,101637.72
2022-10-06T13:29:02.887Z,101627.25
2022-10-06T13:34:07.187Z,101640.22
2022-10-06T13:39:14.028Z,101653.03
2022-10-06T13:44:39.257Z,101655.75
2022-10-06T13:49:47.081Z,101670.47
2022-10-06T13:54:52.476Z,101663.69
2022-10-06T14:00:07.448Z,101671.72
2022-10-06T14:05:33.130Z,101674.00
2022-10-06T14:10:47.092Z,101677.41
2022-10-06T14:15:52.443Z,101691.78
2022-10-06T14:20:55.425Z,101682.28
2022-10-06T14:25:57.975Z,101682.19
2022-10-06T14:31:01.931Z,101689.84
2022-10-06T14:36:05.127Z,101697.31
2022-10-06T14:41:07.700Z,101692.84
2022-10-06T14:46:14.152Z,101694.97
2022-10-06T14:51:17.540Z,101692.34
2022-10-06T14:56:20.268Z,101684.66
2022-10-06T15:01:25.674Z,101694.28
2022-10-06T15:06:46.337Z,101690.25
2022-10-06T15:11:48.913Z,101685.72
2022-10-06T15:16:54.579Z,101688.38
2022-10-06T15:21:57.281Z,101680.03
2022-10-06T15:27:21.193Z,101684.09
2022-10-06T15:32:27.930Z,101690.25
2022-10-06T15:37:31.097Z,101676.59
2022-10-06T15:42:33.626Z,101687.59
2022-10-06T15:47:37.521Z,101684.88
2022-10-06T15:52:40.062Z,101680.06
2022-10-06T15:57:42.612Z,101688.34
2022-10-06T16:02:48.020Z,101691.47
2022-10-06T16:07:50.699Z,101699.19
2022-10-06T16:12:53.239Z,101694.16
2022-10-06T16:17:57.146Z,101682.88
2022-10-06T16:22:59.722Z,101680.81
2022-10-06T16:28:02.308Z,101684.75
2022-10-06T16:33:06.269Z,101675.28
2022-10-06T16:38:08.811Z,101677.31
2022-10-06T16:43:11.363Z,101682.97
2022-10-06T16:48:15.228Z,101682.00
2022-10-06T16:53:18.455Z,101678.78
2022-10-06T16:58:21.001Z,101665.19
2022-10-06T17:03:24.945Z,101664.16
2022-10-06T17:08:27.478Z,101658.41
2022-10-06T17:13:30.175Z,101652.81
2022-10-06T17:18:34.275Z,101648.66
2022-10-06T17:23:37.027Z,101634.97
2022-10-06T17:28:41.980Z,101630.09
2022-10-06T17:33:46.211Z,101614.38
2022-10-06T17:38:50.543Z,101620.03
2022-10-06T17:43:53.164Z,101609.97
2022-10-06T17:48:57.773Z,101602.59
2022-10-06T17:54:01.526Z,101593.13
2022-10-06T17:59:06.162Z,101588.38
2022-10-06T18:04:12.144Z,101578.31
2022-10-06T18:09:16.011Z,101584.97
2022-10-06T18:14:19.951Z,101573.06
2022-10-06T18:19:26.147Z,101548.31
2022-10-06T18:24:30.554Z,101539.31
2022-10-06T18:29:34.872Z,101525.31
2022-10-06T18:40:06.015Z,101486.97
2022-10-06T18:45:28.629Z,101461.81
2022-10-06T18:50:35.328Z,101456.63
2022-10-06T18:55:38.060Z,101436.50
2022-10-06T19:00:40.621Z,101413.63
2022-10-06T19:05:53.267Z,101405.34
2022-10-06T19:11:13.298Z,101391.50
2022-10-06T19:16:17.403Z,101380.91
2022-10-06T19:21:21.502Z,101352.72
2022-10-06T19:26:24.033Z,101334.28
2022-10-06T19:31:27.131Z,101310.22
2022-10-06T19:36:32.143Z,101279.09
2022-10-06T19:41:52.570Z,101251.72
2022-10-06T19:46:55.998Z,101231.78
2022-10-06T19:51:59.898Z,101205.44
2022-10-06T19:57:05.537Z,101169.09
2022-10-06T20:02:10.057Z,101156.47
2022-10-06T20:07:15.145Z,101148.09
2022-10-06T20:12:20.985Z,101128.25
2022-10-06T20:17:28.817Z,101117.03
2022-10-06T20:22:32.690Z,101112.34
2022-10-06T20:27:35.258Z,101093.47
2022-10-06T20:32:37.821Z,101082.56
2022-10-06T20:37:42.179Z,101043.94
2022-10-06T20:42:49.057Z,101020.81
2022-10-06T20:47:51.572Z,100986.16
2022-10-06T20:52:56.634Z,100966.06
2022-10-06T20:57:59.171Z,100937.63
2022-10-06T21:03:02.938Z,100909.38
2022-10-06T21:08:07.058Z,100882.59
2022-10-06T21:13:09.857Z,100864.91
2022-10-06T21:18:12.725Z,100848.84
2022-10-06T21:23:17.145Z,100814.31
2022-10-06T21:28:21.729Z,100800.75
2022-10-06T21:33:25.073Z,100765.84
2022-10-06T21:38:30.167Z,100758.03
2022-10-06T21:43:32.970Z,100726.22
2022-10-06T21:48:35.685Z,100720.72
2022-10-06T21:53:42.197Z,100679.50
2022-10-06T21:58:44.962Z,100668.00
2022-10-06T22:03:47.894Z,100638.09
2022-10-06T22:08:52.052Z,100606.06
2022-10-06T22:13:56.177Z,100563.16
2022-10-06T22:18:59.422Z,100542.94
2022-10-06T22:24:05.379Z,100527.84
2022-10-06T22:29:10.868Z,100505.66
2022-10-06T22:34:15.111Z,100474.34
2022-10-06T22:39:19.341Z,100442.75
2022-10-06T22:44:22.083Z,100385.34
2022-10-06T22:49:24.797Z,100348.97
2022-10-06T22:54:30.090Z,100309.56
2022-10-06T22:59:32.837Z,100297.28
2022-10-06T23:04:35.593Z,100235.78
2022-10-06T23:09:41.442Z,100214.00
2022-10-06T23:14:44.192Z,100195.84
2022-10-06T23:19:46.926Z,100154.78
2022-10-06T23:24:51.176Z,100106.13
2022-10-06T23:29:53.938Z,100080.75
2022-10-06T23:34:56.692Z,100060.22
2022-10-06T23:40:00.738Z,100049.03
2022-10-06T23:45:03.482Z,100027.34
2022-10-06T23:50:07.150Z,100019.06
2022-10-06T23:55:11.295Z,99990.16
